»·PEaware :: QXE2352 KPDX-KGEG

QXE2352 :: KPDX-KGEG

FLIGHT INFORMATION

Flight Status: Arrived
Operator:
Horizon Air
More flights by this operator :: More flights under this callsign
Pilot: Mattia C. (24842)
Aircraft: DEHAVILLAND DASH 8 400
(DH8D)
More flights by this aircraft type
Origin: KPDX Portland Intl
United States
Destination: KGEG Spokane Intl
United States
More flights between these airports :: More routes between these airports
Route: +LAVAA6 LAVAA PAPPS ZOOMR ZOOMR1
File this flight plan on PilotEdge
Remarks: RMK / SIMBRIEF
Altitude:
(Current/Filed)
23,000ft
Speed:
(Current/Filed)
323kts
Departed: 31-May-19 07:25 AM
Arrived: 31-May-19 08:19 AM
Distance/Time
Traveled:
242nm/0:54
Distance/Time
To Go:
Arrived

Flight Plot

Page will automatically refresh every two minutes.

Flight plan parsing failed; only flown route is shown


Map Options




Map Legend


Flown Route
Filed Route
Departure Airport
Arrival Airport
Navaid (VOR, NDB)
Fix

Horizontal Profiles

Position Reports

Time Latitude Longitude Heading Altitude Ground
Speed
31-May-19 06:45 45.591071 -122.593654 180 37ft 0kts
31-May-19 06:46 45.591071 -122.593654 180 37ft 0kts
31-May-19 06:47 45.591071 -122.593654 180 37ft 0kts
31-May-19 06:48 45.591071 -122.593654 180 37ft 0kts
31-May-19 06:49 45.591071 -122.593654 180 37ft 0kts
31-May-19 06:50 45.591071 -122.593654 180 37ft 0kts
31-May-19 06:51 45.591071 -122.593654 180 37ft 0kts
31-May-19 06:52 45.591071 -122.593654 180 37ft 0kts
31-May-19 06:53 45.591071 -122.593654 180 37ft 0kts
31-May-19 06:54 45.591071 -122.593654 180 37ft 0kts
31-May-19 06:55 45.591071 -122.593654 180 37ft 0kts
31-May-19 06:56 45.591071 -122.593654 180 37ft 0kts
31-May-19 06:57 45.591071 -122.593654 180 37ft 0kts
31-May-19 06:58 45.591071 -122.593654 180 37ft 0kts
31-May-19 07:05 45.591071 -122.593654 180 37ft 0kts
31-May-19 07:06 45.591071 -122.593654 180 37ft 0kts
31-May-19 07:07 45.591071 -122.593654 180 37ft 0kts
31-May-19 07:08 45.591071 -122.593654 180 37ft 0kts
31-May-19 07:09 45.591071 -122.593654 180 37ft 0kts
31-May-19 07:10 45.591071 -122.593654 180 37ft 0kts
31-May-19 07:11 45.591071 -122.593654 180 37ft 0kts
31-May-19 07:12 45.591071 -122.593654 180 37ft 0kts
31-May-19 07:13 45.591844 -122.593646 181 37ft 3kts
31-May-19 07:14 45.592105 -122.593634 182 37ft 0kts
31-May-19 07:15 45.592105 -122.593634 182 37ft 0kts
31-May-19 07:16 45.592105 -122.593634 182 37ft 0kts
31-May-19 07:17 45.592105 -122.593634 182 37ft 0kts
31-May-19 07:18 45.592077 -122.593896 277 37ft 3kts
31-May-19 07:19 45.592561 -122.595269 301 37ft 0kts
31-May-19 07:20 45.593663 -122.598077 297 37ft 3kts
31-May-19 07:21 45.594554 -122.600469 298 37ft 11kts
31-May-19 07:22 45.595549 -122.600600 29 37ft 0kts
31-May-19 07:23 45.596173 -122.600100 29 37ft 7kts
31-May-19 07:24 45.589794 -122.582867 117 139ft 133kts
31-May-19 07:25 45.571240 -122.530199 111 2560ft 167kts
31-May-19 07:26 45.560809 -122.463690 83 5036ft 192kts
31-May-19 07:27 45.551912 -122.386346 100 7648ft 199kts
31-May-19 07:28 45.555980 -122.310332 52 10056ft 201kts
31-May-19 07:29 45.591720 -122.247936 46 12205ft 215kts
31-May-19 07:30 45.637372 -122.177595 45 13260ft 257kts
31-May-19 07:31 45.672821 -122.086070 63 14643ft 264kts
31-May-19 07:32 45.703882 -121.988869 63 15856ft 271kts
31-May-19 07:33 45.735259 -121.891226 63 16950ft 275kts
31-May-19 07:34 45.768431 -121.792898 61 17897ft 280kts
31-May-19 07:35 45.797298 -121.713601 61 18586ft 282kts
31-May-19 07:36 45.833251 -121.613049 61 19362ft 287kts
31-May-19 07:38 45.869814 -121.510241 61 20075ft 290kts
31-May-19 07:39 45.906091 -121.407831 61 20738ft 292kts
31-May-19 07:40 45.942396 -121.305150 61 21305ft 295kts
31-May-19 07:41 45.979334 -121.200179 61 21829ft 298kts
31-May-19 07:42 46.016177 -121.094802 61 22233ft 303kts
31-May-19 07:43 46.053050 -120.989262 61 22661ft 304kts
31-May-19 07:44 46.090132 -120.882670 61 23043ft 308kts
31-May-19 07:45 46.128985 -120.770523 61 23099ft 322kts
31-May-19 07:46 46.169170 -120.654024 61 23101ft 331kts
31-May-19 07:47 46.210228 -120.534363 62 23102ft 336kts
31-May-19 07:48 46.251273 -120.414184 62 23095ft 339kts
31-May-19 07:49 46.292091 -120.294126 62 23095ft 341kts
31-May-19 07:50 46.333380 -120.172139 62 23095ft 342kts
31-May-19 07:51 46.374071 -120.051338 62 23094ft 342kts
31-May-19 07:52 46.414407 -119.930326 61 23088ft 343kts
31-May-19 07:53 46.464942 -119.817274 43 23091ft 341kts
31-May-19 07:54 46.529790 -119.720931 44 23098ft 335kts
31-May-19 07:55 46.593938 -119.621584 44 23089ft 337kts
31-May-19 07:56 46.656482 -119.524957 44 23091ft 338kts
31-May-19 07:57 46.720108 -119.426336 44 23095ft 340kts
31-May-19 07:57 46.773953 -119.342861 44 23094ft 342kts
31-May-19 07:59 46.848613 -119.226354 44 23093ft 342kts
31-May-19 08:00 46.914623 -119.123166 45 22186ft 363kts
31-May-19 08:00 46.969643 -119.036701 45 21027ft 349kts
31-May-19 08:02 47.042622 -118.921431 45 19447ft 337kts
31-May-19 08:02 47.093813 -118.840442 45 18327ft 332kts
31-May-19 08:03 47.155237 -118.742697 45 16936ft 330kts
31-May-19 08:04 47.215738 -118.646633 45 15564ft 327kts
31-May-19 08:05 47.274834 -118.552216 45 14415ft 318kts
31-May-19 08:06 47.332983 -118.458858 46 13225ft 311kts
31-May-19 08:07 47.387295 -118.370676 45 12416ft 293kts
31-May-19 08:08 47.432574 -118.276500 68 11450ft 289kts
31-May-19 08:09 47.452686 -118.163080 74 9994ft 298kts
31-May-19 08:10 47.471271 -118.048758 75 8273ft 290kts
31-May-19 08:11 47.488481 -117.944407 75 6477ft 243kts
31-May-19 08:12 47.503715 -117.850586 75 5458ft 243kts
31-May-19 08:13 47.519202 -117.756635 73 5019ft 221kts
31-May-19 08:14 47.545764 -117.684157 74 4131ft 175kts
31-May-19 08:15 47.563614 -117.623553 51 3569ft 128kts
31-May-19 08:16 47.589576 -117.580845 46 3015ft 135kts
31-May-19 08:17 47.614094 -117.544199 46 2380ft 104kts
31-May-19 08:18 47.622612 -117.531348 33 2379ft 11kts
31-May-19 08:19 47.625314 -117.531148 297 2379ft 5kts
31-May-19 08:20 47.624007 -117.533138 225 2379ft 3kts
31-May-19 08:21 47.624070 -117.533949 315 2379ft 0kts
31-May-19 08:22 47.624502 -117.534308 338 2379ft 8kts
31-May-19 08:23 47.625955 -117.535121 212 2379ft 0kts
31-May-19 08:24 47.625955 -117.535121 212 2379ft 0kts
31-May-19 08:25 47.625955 -117.535121 212 2379ft 0kts
31-May-19 08:26 47.625955 -117.535121 212 2379ft 0kts
31-May-19 08:27 47.625955 -117.535121 212 2379ft 0kts
31-May-19 08:28 47.625955 -117.535121 212 2379ft 0kts
31-May-19 08:29 47.625955 -117.535121 212 2379ft 0kts
31-May-19 08:30 47.625955 -117.535121 212 2379ft 0kts
31-May-19 08:31 47.625955 -117.535121 212 2379ft 0kts
31-May-19 08:32 47.625955 -117.535121 212 2379ft 0kts

Navigation Log

Ident Type
Flight plan parsing failed, navigation log unavailable